Time;durP1;ratioP1;P1;durP2;ratioP2;P2;SDS_P1;SDS_P2;PMS_P1;PMS_P2;Temp;Humidity;BMP_temperature;BMP_pressure;BME280_temperature;BME280_humidity;BME280_pressure;Samples;Min_cycle;Max_cycle;Signal;HPM_P1;HPM_P2
2023/08/17 05:48:50;;;;;;;4.73;2.57;;;;;;;;;;10501118;28;20412;-82
2023/08/17 05:53:51;;;;;;;3.17;1.83;;;;;;;;;;10498534;28;20267;-83
2023/08/17 05:58:52;;;;;;;2.13;1.60;;;;;;;;;;10501128;28;20040;-83
2023/08/17 06:03:53;;;;;;;5.53;2.50;;;;;;;;;;10500794;28;20043;-83
2023/08/17 06:08:54;;;;;;;6.15;2.33;;;;;;;;;;10503505;28;20024;-80
2023/08/17 06:13:55;;;;;;;8.05;2.55;;;;;;;;;;10512608;28;20085;-82
2023/08/17 06:18:56;;;;;;;5.53;2.78;;;;;;;;;;10501063;28;20485;-82
2023/08/17 06:23:57;;;;;;;6.93;2.53;;;;;;;;;;10497867;28;20559;-82
2023/08/17 06:28:58;;;;;;;3.58;2.70;;;;;;;;;;10497952;28;20021;-81
2023/08/17 06:33:59;;;;;;;5.10;2.65;;;;;;;;;;10499747;28;20085;-81
2023/08/17 06:39:00;;;;;;;5.25;1.70;;;;;;;;;;10499962;28;20463;-81
2023/08/17 06:44:01;;;;;;;3.03;1.73;;;;;;;;;;10498095;28;20021;-81
2023/08/17 06:49:02;;;;;;;5.25;1.80;;;;;;;;;;10496507;28;20554;-81
2023/08/17 06:54:04;;;;;;;4.10;2.03;;;;;;;;;;10498615;28;20450;-81
2023/08/17 06:59:05;;;;;;;5.60;2.15;;;;;;;;;;10483994;28;20025;-81
2023/08/17 07:04:06;;;;;;;6.53;2.55;;;;;;;;;;10490927;28;20158;-81
2023/08/17 07:09:07;;;;;;;4.35;2.05;;;;;;;;;;10501786;28;20634;-81
2023/08/17 07:14:08;;;;;;;3.70;1.50;;;;;;;;;;10506573;28;20088;-80
2023/08/17 07:19:10;;;;;;;2.60;1.60;;;;;;;;;;10499040;28;20017;-80
2023/08/17 07:24:15;;;;;;;4.55;1.85;;;;;;;;;;10494280;28;20029;-80
2023/08/17 07:29:16;;;;;;;3.63;2.28;;;;;;;;;;10496234;28;20040;-81
2023/08/17 07:34:22;;;;;;;5.60;1.90;;;;;;;;;;10494534;28;20064;-80
2023/08/17 07:39:23;;;;;;;3.63;2.10;;;;;;;;;;10499693;28;20021;-82
2023/08/17 07:44:31;;;;;;;4.07;2.65;;;;;;;;;;10514649;22;20037;-86
2023/08/17 08:18:14;;;;;;;3.87;2.60;;;;;;;;;;10423851;28;20126;-86
2023/08/17 08:40:20;;;;;;;3.45;2.40;;;;;;;;;;10479261;28;20021;-87
2023/08/17 08:51:34;;;;;;;7.00;2.53;;;;;;;;;;10561626;28;20469;-87
2023/08/17 08:56:39;;;;;;;4.88;2.63;;;;;;;;;;10507298;28;20024;-87
2023/08/17 09:01:47;;;;;;;3.90;2.05;;;;;;;;;;10510662;28;20037;-87
2023/08/17 09:06:54;;;;;;;5.75;3.10;;;;;;;;;;10508071;28;20100;-87
2023/08/17 09:12:15;;;;;;;4.25;2.13;;;;;;;;;;10511145;28;20032;-85
2023/08/17 09:17:48;;;;;;;4.35;2.10;;;;;;;;;;10509511;28;20025;-86
2023/08/17 09:23:24;;;;;;;2.35;1.80;;;;;;;;;;10509881;28;20036;-86
2023/08/17 09:28:31;;;;;;;4.53;2.17;;;;;;;;;;10507432;28;20115;-86
2023/08/17 09:33:39;;;;;;;6.53;2.35;;;;;;;;;;10509387;28;20039;-85
2023/08/17 09:38:42;;;;;;;4.55;2.50;;;;;;;;;;10506873;28;20035;-85
2023/08/17 09:43:43;;;;;;;6.82;2.90;;;;;;;;;;10505397;28;20021;-86
2023/08/17 09:48:45;;;;;;;5.75;2.55;;;;;;;;;;10504754;28;20108;-85
2023/08/17 09:53:52;;;;;;;3.97;2.78;;;;;;;;;;10507459;28;20036;-86
2023/08/17 09:58:53;;;;;;;5.28;3.72;;;;;;;;;;10508224;28;20035;-85
2023/08/17 10:03:56;;;;;;;5.35;3.67;;;;;;;;;;10506930;28;20093;-85
2023/08/17 10:08:58;;;;;;;6.05;3.58;;;;;;;;;;10507802;28;20080;-86
2023/08/17 10:14:08;;;;;;;4.28;3.17;;;;;;;;;;10507191;28;20024;-86
2023/08/17 10:19:09;;;;;;;;;;;;;;;;;;10503696;28;20028;-85
2023/08/17 10:24:11;;;;;;;5.95;3.42;;;;;;;;;;10502198;28;19905;-86
2023/08/17 10:29:12;;;;;;;5.75;3.25;;;;;;;;;;10501316;28;20021;-86
2023/08/17 10:34:15;;;;;;;7.53;4.05;;;;;;;;;;10508234;28;20535;-86
2023/08/17 10:39:20;;;;;;;6.80;4.53;;;;;;;;;;10513809;28;20390;-85
2023/08/17 10:44:41;;;;;;;6.07;4.03;;;;;;;;;;10526931;28;20037;-85
2023/08/17 10:49:52;;;;;;;7.00;4.35;;;;;;;;;;10518914;28;20119;-86
2023/08/17 10:54:55;;;;;;;6.55;3.95;;;;;;;;;;10515947;28;20024;-86
2023/08/17 11:00:32;;;;;;;6.05;4.50;;;;;;;;;;10511981;28;20028;-87
2023/08/17 11:06:07;;;;;;;9.65;4.63;;;;;;;;;;10503125;28;20406;-86
2023/08/17 11:11:28;;;;;;;5.63;3.97;;;;;;;;;;10511762;28;20348;-86
2023/08/17 11:16:46;;;;;;;6.05;4.70;;;;;;;;;;10512172;28;20028;-87
2023/08/17 11:22:08;;;;;;;8.80;4.78;;;;;;;;;;10508985;28;20024;-87
2023/08/17 11:27:12;;;;;;;6.90;5.15;;;;;;;;;;10512740;28;20028;-86
2023/08/17 11:32:17;;;;;;;7.53;5.32;;;;;;;;;;10511000;28;20031;-87
2023/08/17 11:37:26;;;;;;;7.20;4.80;;;;;;;;;;10511077;28;20025;-84
2023/08/17 11:42:27;;;;;;;7.82;5.13;;;;;;;;;;10512195;28;20032;-84
2023/08/17 11:47:28;;;;;;;6.40;4.70;;;;;;;;;;10511192;28;20032;-85
2023/08/17 11:52:32;;;;;;;9.70;4.85;;;;;;;;;;10513035;28;20463;-85
2023/08/17 11:57:34;;;;;;;8.55;5.85;;;;;;;;;;10512814;28;20449;-84
2023/08/17 12:02:37;;;;;;;7.00;4.88;;;;;;;;;;10512867;28;20031;-85
2023/08/17 12:07:38;;;;;;;6.90;4.93;;;;;;;;;;10514061;28;20028;-85
2023/08/17 12:12:40;;;;;;;7.47;5.10;;;;;;;;;;10509666;28;20467;-85
2023/08/17 12:17:48;;;;;;;8.60;4.95;;;;;;;;;;10512897;28;20074;-85
2023/08/17 12:22:49;;;;;;;10.23;5.57;;;;;;;;;;10521452;28;20043;-85
2023/08/17 12:27:51;;;;;;;10.02;6.85;;;;;;;;;;10509428;28;20035;-85
2023/08/17 12:32:52;;;;;;;7.82;6.45;;;;;;;;;;10513726;28;20039;-85
2023/08/17 12:37:53;;;;;;;6.85;5.82;;;;;;;;;;10510146;28;20033;-85
2023/08/17 12:42:54;;;;;;;10.63;6.35;;;;;;;;;;10510990;28;20070;-85
2023/08/17 12:47:55;;;;;;;5.88;5.28;;;;;;;;;;10512915;28;20068;-86
2023/08/17 12:52:56;;;;;;;6.40;5.38;;;;;;;;;;10511714;28;20025;-84
2023/08/17 12:57:57;;;;;;;6.90;6.13;;;;;;;;;;10507611;28;20040;-85
2023/08/17 13:02:58;;;;;;;8.25;5.22;;;;;;;;;;10510885;28;20494;-84
2023/08/17 13:07:59;;;;;;;8.90;6.00;;;;;;;;;;10509662;28;20135;-89
2023/08/17 13:13:00;;;;;;;8.80;5.40;;;;;;;;;;10509894;28;20020;-87
2023/08/17 13:18:02;;;;;;;8.52;5.30;;;;;;;;;;10507280;28;20127;-86
2023/08/17 13:23:03;;;;;;;6.68;5.47;;;;;;;;;;10505732;28;20028;-87
2023/08/17 13:28:04;;;;;;;9.40;6.10;;;;;;;;;;10508078;28;20127;-86
2023/08/17 13:33:08;;;;;;;9.85;6.32;;;;;;;;;;10508543;28;20096;-87
2023/08/17 13:38:09;;;;;;;8.10;6.00;;;;;;;;;;10505697;28;20025;-86
2023/08/17 13:43:13;;;;;;;8.30;6.20;;;;;;;;;;10504724;28;20435;-86
2023/08/17 13:48:14;;;;;;;9.15;6.00;;;;;;;;;;10508684;28;20036;-85
2023/08/17 13:53:15;;;;;;;9.55;6.43;;;;;;;;;;10512646;28;20025;-86
2023/08/17 13:58:16;;;;;;;8.68;5.80;;;;;;;;;;10516963;28;20127;-85
2023/08/17 14:03:17;;;;;;;8.40;5.78;;;;;;;;;;10511994;28;20024;-84
2023/08/17 14:08:18;;;;;;;11.75;9.57;;;;;;;;;;10513327;28;20044;-87
2023/08/17 14:13:20;;;;;;;7.80;5.70;;;;;;;;;;10513695;28;20027;-86
2023/08/17 14:18:21;;;;;;;8.32;6.13;;;;;;;;;;10516835;28;20037;-86
2023/08/17 14:23:22;;;;;;;9.38;5.82;;;;;;;;;;10515176;28;20431;-87
2023/08/17 14:28:23;;;;;;;8.82;5.97;;;;;;;;;;10515223;28;20054;-87
2023/08/17 14:33:24;;;;;;;8.63;6.05;;;;;;;;;;10513360;28;20112;-85
2023/08/17 14:38:25;;;;;;;9.18;6.57;;;;;;;;;;10514094;28;20028;-86
2023/08/17 14:43:26;;;;;;;8.68;5.60;;;;;;;;;;10514447;28;20060;-87
2023/08/17 14:48:27;;;;;;;9.32;6.25;;;;;;;;;;10511376;28;20040;-83
2023/08/17 14:53:28;;;;;;;10.35;5.55;;;;;;;;;;10513942;28;20092;-82
2023/08/17 14:58:29;;;;;;;9.43;5.55;;;;;;;;;;10514768;28;20033;-83
2023/08/17 15:03:30;;;;;;;8.95;5.95;;;;;;;;;;10515300;28;20112;-81
2023/08/17 15:08:32;;;;;;;9.63;5.80;;;;;;;;;;10517877;28;20028;-82
2023/08/17 15:13:33;;;;;;;8.15;6.40;;;;;;;;;;10516791;28;20024;-81
2023/08/17 15:18:34;;;;;;;8.98;6.53;;;;;;;;;;10519509;28;20442;-82
2023/08/17 15:23:35;;;;;;;7.10;5.53;;;;;;;;;;10523114;28;20024;-84
2023/08/17 15:28:36;;;;;;;8.23;5.20;;;;;;;;;;10517254;28;20028;-84
2023/08/17 15:33:39;;;;;;;6.45;5.75;;;;;;;;;;10517355;28;20111;-84
2023/08/17 15:38:41;;;;;;;6.95;5.30;;;;;;;;;;10517523;28;20044;-84
2023/08/17 15:43:42;;;;;;;7.00;4.57;;;;;;;;;;10524021;28;20032;-85
2023/08/17 15:48:43;;;;;;;7.22;4.50;;;;;;;;;;10519564;28;20367;-84
2023/08/17 15:53:44;;;;;;;7.32;4.38;;;;;;;;;;10521736;28;20024;-85
2023/08/17 15:58:48;;;;;;;4.80;4.40;;;;;;;;;;10522914;28;20024;-85
2023/08/17 16:03:50;;;;;;;8.18;4.78;;;;;;;;;;10530504;28;20066;-84
2023/08/17 16:08:57;;;;;;;6.28;4.13;;;;;;;;;;10527723;28;20038;-84
2023/08/17 16:13:58;;;;;;;4.93;3.92;;;;;;;;;;10534981;28;20024;-84
2023/08/17 16:18:59;;;;;;;5.15;3.70;;;;;;;;;;10518114;28;20540;-84
2023/08/17 16:24:00;;;;;;;6.57;4.60;;;;;;;;;;10516435;28;20025;-86
2023/08/17 16:29:10;;;;;;;6.25;5.22;;;;;;;;;;10513832;28;20197;-87
2023/08/17 16:34:22;;;;;;;5.43;4.72;;;;;;;;;;10515365;28;20039;-87
2023/08/17 16:39:23;;;;;;;7.68;6.88;;;;;;;;;;10507751;28;20024;-87
2023/08/17 16:44:29;;;;;;;5.30;4.80;;;;;;;;;;10505075;28;20116;-87
2023/08/17 16:49:30;;;;;;;5.28;4.10;;;;;;;;;;10510136;28;20189;-87
2023/08/17 16:54:40;;;;;;;6.55;5.68;;;;;;;;;;10505347;28;20539;-86
2023/08/17 17:00:07;;;;;;;5.78;5.25;;;;;;;;;;10505497;28;20116;-87
2023/08/17 17:05:08;;;;;;;5.38;4.80;;;;;;;;;;10505447;28;20033;-87
2023/08/17 17:10:10;;;;;;;6.15;5.18;;;;;;;;;;10503585;28;20390;-87
2023/08/17 17:15:11;;;;;;;7.25;6.22;;;;;;;;;;10504379;28;20059;-87
2023/08/17 17:20:12;;;;;;;9.18;7.90;;;;;;;;;;10505403;28;20035;-87
2023/08/17 17:25:13;;;;;;;8.05;5.53;;;;;;;;;;10506907;28;20029;-86
2023/08/17 17:30:54;;;;;;;;;;;;;;;;;;;;;
